Terminal Aerodrome Forecast
Issued by NWS

Home | Current Version | Previous Version | Text Only | Print | Product List | Glossary Off
Versions: 1 2 3 4 5 6 7 8 9 10 11 12

000
FTUS43 KFGF 211700
TAFBJI
TAF
KBJI 211716Z 2118/2218 14015G22KT P6SM SKC
     FM220000 16015KT P6SM SKC=

USA.gov is the U.S. government's official web portal to all federal, state and local government web resources and services.